Zawiercie, Poland
Current Conditions -  °F | °C
As of 12:30 PM on Saturday 22 Nov 2014 (Local Time) from EPKT Reporting Station
Haze Haze  
Wind Chill: 34°   Ceiling: 600
Heat Index: 37°   Visibility: 1.8mi
Dew Point: 36°   Wind: 5mph
Humidity: 93%   Direction: 80°E
Pressure: 30.33"   Gusts: NA
Location:  50.49°N, 19.42°E
Report Text: EPKT 221030Z 08004KT 3000 BR SCT004 BKN006 03/02 Q1027
Loading
Personal Weather Stations






























Interactive Weather Map New forecast layout! Learn more

10-Day Weather Forecast

Advertisements
Track Severe Weather on mobile